createdAt,value
2023-02-17T00:01:33.791Z,101158.22
2023-02-17T00:04:03.352Z,101166.13
2023-02-17T00:06:32.564Z,101159.06
2023-02-17T00:09:00.597Z,101170.38
2023-02-17T00:11:28.589Z,101155.50
2023-02-17T00:13:56.910Z,101158.13
2023-02-17T00:16:26.123Z,101154.63
2023-02-17T00:18:58.603Z,101162.38
2023-02-17T00:21:28.366Z,101159.63
2023-02-17T00:23:58.146Z,101160.41
2023-02-17T00:26:24.946Z,101156.00
2023-02-17T00:28:52.593Z,101159.31
2023-02-17T00:31:22.822Z,101160.13
2023-02-17T00:33:50.408Z,101163.53
2023-02-17T00:36:19.948Z,101156.44
2023-02-17T00:38:49.118Z,101167.72
2023-02-17T00:41:17.996Z,101165.81
2023-02-17T00:43:46.003Z,101154.38
2023-02-17T00:46:13.204Z,101159.53
2023-02-17T00:48:41.299Z,101143.72
2023-02-17T00:51:08.751Z,101152.44
2023-02-17T00:53:36.407Z,101158.47
2023-02-17T00:56:04.984Z,101150.59
2023-02-17T00:58:32.590Z,101145.22
2023-02-17T01:00:59.826Z,101146.00
2023-02-17T01:03:27.829Z,101158.16
2023-02-17T01:05:55.763Z,101150.28
2023-02-17T01:08:24.244Z,101150.31
2023-02-17T01:10:52.113Z,101142.41
2023-02-17T01:13:20.030Z,101151.16
2023-02-17T01:15:53.322Z,101136.28
2023-02-17T01:18:23.500Z,101140.56
2023-02-17T01:20:52.707Z,101143.97
2023-02-17T01:23:20.324Z,101146.59
2023-02-17T01:25:49.135Z,101141.31
2023-02-17T01:28:20.828Z,101126.44
2023-02-17T01:30:49.348Z,101134.34
2023-02-17T01:33:17.410Z,101131.69
2023-02-17T01:35:44.490Z,101131.66
2023-02-17T01:38:11.885Z,101129.84
2023-02-17T01:40:49.095Z,101129.88
2023-02-17T01:43:17.755Z,101134.13
2023-02-17T01:46:07.945Z,101132.34
2023-02-17T01:48:46.732Z,101128.81
2023-02-17T01:51:13.697Z,101132.25
2023-02-17T01:53:47.974Z,101135.63
2023-02-17T01:56:16.509Z,101138.19
2023-02-17T01:58:50.053Z,101127.69
2023-02-17T02:01:17.923Z,101126.75
2023-02-17T02:03:45.902Z,101127.63
2023-02-17T02:06:18.782Z,101127.56
2023-02-17T02:08:51.645Z,101135.47
2023-02-17T02:11:18.846Z,101124.13
2023-02-17T02:13:46.308Z,101133.75
2023-02-17T02:16:21.442Z,101121.78
2023-02-17T02:18:57.545Z,101118.41
2023-02-17T02:21:58.498Z,101121.13
2023-02-17T02:24:28.915Z,101117.59
2023-02-17T02:27:26.306Z,101115.88
2023-02-17T02:30:19.216Z,101120.25
2023-02-17T02:33:08.135Z,101120.25
2023-02-17T02:35:51.160Z,101117.59
2023-02-17T02:39:13.459Z,101127.19
2023-02-17T02:41:46.742Z,101116.78
2023-02-17T02:44:18.601Z,101123.78
2023-02-17T02:46:46.066Z,101128.13
2023-02-17T02:49:13.499Z,101121.09
2023-02-17T02:51:54.473Z,101122.81
2023-02-17T02:54:48.044Z,101122.78
2023-02-17T02:57:30.312Z,101125.38
2023-02-17T03:00:30.101Z,101117.59
2023-02-17T03:03:20.161Z,101117.56
2023-02-17T03:06:01.326Z,101129.75
2023-02-17T03:08:33.199Z,101119.31
2023-02-17T03:11:00.732Z,101123.72
2023-02-17T03:13:28.054Z,101126.34
2023-02-17T03:15:55.164Z,101119.41
2023-02-17T03:18:22.521Z,101122.00
2023-02-17T03:21:00.989Z,101121.22
2023-02-17T03:23:29.190Z,101123.84
2023-02-17T03:25:56.298Z,101128.25
2023-02-17T03:28:23.732Z,101119.47
2023-02-17T03:30:50.925Z,101116.88
2023-02-17T03:33:18.265Z,101123.91
2023-02-17T03:35:45.644Z,101116.97
2023-02-17T03:38:14.063Z,101120.47
2023-02-17T03:40:41.101Z,101118.69
2023-02-17T03:43:08.464Z,101110.75
2023-02-17T03:45:38.781Z,101116.88
2023-02-17T03:48:06.291Z,101123.88
2023-02-17T03:50:33.578Z,101117.75
2023-02-17T03:53:01.339Z,101115.06
2023-02-17T03:55:28.470Z,101122.97
2023-02-17T03:57:55.914Z,101134.16
2023-02-17T04:00:23.262Z,101121.91
2023-02-17T04:02:50.638Z,101124.56
2023-02-17T04:05:18.119Z,101120.25
2023-02-17T04:07:45.891Z,101108.97
2023-02-17T04:10:13.134Z,101113.34
2023-02-17T04:12:41.028Z,101115.13
2023-02-17T04:15:08.641Z,101110.84
2023-02-17T04:17:38.344Z,101113.47
2023-02-17T04:20:07.019Z,101113.47
2023-02-17T04:22:34.314Z,101114.31
2023-02-17T04:25:01.286Z,101106.44
2023-02-17T04:27:29.184Z,101112.63
2023-02-17T04:29:56.275Z,101106.44
2023-02-17T04:32:23.693Z,101110.84
2023-02-17T04:34:50.803Z,101097.75
2023-02-17T04:37:18.261Z,101116.06
2023-02-17T04:39:45.982Z,101108.97
2023-02-17T04:42:13.334Z,101123.78
2023-02-17T04:44:40.481Z,101113.34
2023-02-17T04:49:54.952Z,101110.75
2023-02-17T04:52:27.285Z,101115.97
2023-02-17T04:54:58.068Z,101118.56
2023-02-17T04:57:25.727Z,101129.00
2023-02-17T04:59:52.828Z,101124.53
2023-02-17T05:02:21.318Z,101130.66
2023-02-17T05:04:49.480Z,101127.19
2023-02-17T05:07:19.973Z,101134.19
2023-02-17T05:09:49.845Z,101129.91
2023-02-17T05:12:19.319Z,101126.44
2023-02-17T05:14:56.983Z,101137.88
2023-02-17T05:17:40.212Z,101144.91
2023-02-17T05:20:09.955Z,101150.03
2023-02-17T05:22:41.211Z,101151.75
2023-02-17T05:25:09.013Z,101143.88
2023-02-17T05:27:37.492Z,101155.22
2023-02-17T05:30:18.180Z,101157.84
2023-02-17T05:35:27.812Z,101158.00
2023-02-17T05:37:54.928Z,101154.63
2023-02-17T05:40:29.082Z,101163.44
2023-02-17T05:42:56.541Z,101157.38
2023-02-17T05:45:24.308Z,101167.97
2023-02-17T05:47:52.289Z,101166.25
2023-02-17T05:50:20.968Z,101157.66
2023-02-17T05:52:51.088Z,101160.41
2023-02-17T05:58:30.366Z,101172.19
2023-02-17T06:01:00.151Z,101170.47
2023-02-17T06:03:27.255Z,101176.50
2023-02-17T06:05:57.171Z,101170.41
2023-02-17T06:08:24.026Z,101180.03
2023-02-17T06:10:56.451Z,101165.19
2023-02-17T06:13:51.781Z,101170.47
2023-02-17T06:16:22.500Z,101183.59
2023-02-17T06:18:50.250Z,101182.88
2023-02-17T06:21:20.244Z,101181.22
2023-02-17T06:23:47.527Z,101176.09
2023-02-17T06:26:18.017Z,101167.47
2023-02-17T06:28:45.135Z,101191.19
2023-02-17T06:31:12.773Z,101180.84
2023-02-17T06:36:22.151Z,101187.13
2023-02-17T06:38:52.806Z,101176.66
2023-02-17T06:41:20.336Z,101185.47
2023-02-17T06:43:47.459Z,101175.91
2023-02-17T06:46:16.234Z,101181.22
2023-02-17T06:54:58.818Z,101177.03
2023-02-17T06:57:26.077Z,101186.72
2023-02-17T06:59:53.625Z,101175.38
2023-02-17T07:02:23.454Z,101174.53
2023-02-17T07:04:52.692Z,101179.78
2023-02-17T07:07:19.686Z,101161.47
2023-02-17T07:09:47.298Z,101179.84
2023-02-17T07:15:13.217Z,101174.66
2023-02-17T07:17:42.087Z,101172.03
2023-02-17T07:20:10.346Z,101183.44
2023-02-17T07:22:38.637Z,101181.69
2023-02-17T07:25:07.874Z,101183.44
2023-02-17T07:27:36.639Z,101173.81
2023-02-17T07:30:05.574Z,101175.53
2023-02-17T07:32:33.151Z,101172.91
2023-02-17T07:35:00.196Z,101180.75
2023-02-17T07:37:27.684Z,101180.72
2023-02-17T07:39:57.685Z,101182.44
2023-02-17T07:42:27.723Z,101177.97
2023-02-17T07:44:54.857Z,101180.53
2023-02-17T07:47:22.302Z,101185.69
2023-02-17T07:49:50.064Z,101175.94
2023-02-17T07:52:18.654Z,101181.97
2023-02-17T07:54:46.155Z,101177.47
2023-02-17T07:57:14.184Z,101173.81
2023-02-17T07:59:41.796Z,101186.78
2023-02-17T08:02:12.614Z,101178.75
2023-02-17T08:04:42.357Z,101174.16
2023-02-17T08:07:09.759Z,101179.19
2023-02-17T08:09:55.410Z,101168.38
2023-02-17T08:12:47.095Z,101165.47
2023-02-17T08:15:15.327Z,101164.28
2023-02-17T08:17:50.613Z,101169.34
2023-02-17T08:20:18.191Z,101148.78
2023-02-17T08:22:45.681Z,101166.28
2023-02-17T08:25:14.870Z,101151.16
2023-02-17T08:27:42.418Z,101159.59
2023-02-17T08:30:10.050Z,101148.78
2023-02-17T08:32:37.761Z,101156.47
2023-02-17T08:37:54.601Z,101152.31
2023-02-17T08:40:21.655Z,101152.09
2023-02-17T08:42:49.437Z,101135.06
2023-02-17T08:45:17.192Z,101171.63
2023-02-17T08:47:44.999Z,101156.41
2023-02-17T08:53:08.118Z,101164.13
2023-02-17T08:55:48.514Z,101155.25
2023-02-17T08:58:17.364Z,101161.31
2023-02-17T09:00:44.460Z,101155.69
2023-02-17T09:03:12.102Z,101148.22
2023-02-17T09:05:41.660Z,101168.03
2023-02-17T09:08:11.189Z,101148.28
2023-02-17T09:10:39.057Z,101152.16
2023-02-17T09:13:06.616Z,101160.59
2023-02-17T09:15:36.524Z,101137.31
2023-02-17T09:18:04.581Z,101138.91
2023-02-17T09:20:31.673Z,101153.44
2023-02-17T09:22:59.312Z,101156.28
2023-02-17T09:25:41.345Z,101152.22
2023-02-17T09:31:18.066Z,101158.38
2023-02-17T09:33:47.963Z,101168.75
2023-02-17T09:36:18.592Z,101161.66
2023-02-17T09:38:46.756Z,101150.28
2023-02-17T09:41:38.396Z,101131.91
2023-02-17T09:44:16.444Z,101130.41
2023-02-17T09:47:00.942Z,101144.63
2023-02-17T09:49:45.120Z,101116.34
2023-02-17T09:52:15.282Z,101154.63
2023-02-17T09:55:04.488Z,101129.03
2023-02-17T09:57:40.620Z,101138.03
2023-02-17T10:00:11.259Z,101110.38
2023-02-17T10:06:34.441Z,101131.03
2023-02-17T10:10:02.000Z,101097.41
2023-02-17T10:12:38.871Z,101125.28
2023-02-17T10:15:21.036Z,101122.84
2023-02-17T10:18:16.696Z,101125.19
2023-02-17T10:20:58.317Z,101119.22
2023-02-17T10:23:28.113Z,101126.81
2023-02-17T10:26:14.154Z,101113.06
2023-02-17T10:29:19.464Z,101110.09
2023-02-17T10:31:55.330Z,101081.44
2023-02-17T10:35:03.504Z,101101.03
2023-02-17T10:37:46.369Z,101101.81
2023-02-17T10:40:22.843Z,101098.09
2023-02-17T10:43:00.773Z,101089.25
2023-02-17T10:45:35.317Z,101090.78
2023-02-17T10:48:06.908Z,101085.16
2023-02-17T10:50:36.840Z,101070.69
2023-02-17T10:53:17.732Z,101072.34
2023-02-17T10:56:21.689Z,101086.94
2023-02-17T10:58:57.072Z,101087.47
2023-02-17T11:01:26.399Z,101065.94
2023-02-17T11:04:13.808Z,101063.50
2023-02-17T11:06:44.981Z,101079.53
2023-02-17T11:09:35.620Z,101051.97
2023-02-17T11:12:22.120Z,101065.84
2023-02-17T11:14:52.086Z,101074.31
2023-02-17T11:17:41.440Z,101060.78
2023-02-17T11:20:15.864Z,101064.75
2023-02-17T11:22:48.362Z,101084.38
2023-02-17T11:25:26.424Z,101072.38
2023-02-17T11:27:59.257Z,101080.03
2023-02-17T11:30:28.801Z,101066.09
2023-02-17T11:32:56.427Z,101077.25
2023-02-17T11:35:38.977Z,101064.75
2023-02-17T11:38:16.056Z,101075.63
2023-02-17T11:41:04.120Z,101072.00
2023-02-17T11:43:33.152Z,101061.53
2023-02-17T11:46:12.355Z,101057.34
2023-02-17T11:49:07.393Z,101064.34
2023-02-17T11:51:55.636Z,101074.38
2023-02-17T11:54:59.294Z,101064.53
2023-02-17T11:57:40.814Z,101056.19
2023-02-17T12:00:45.203Z,101046.75
2023-02-17T12:03:23.097Z,101057.16
2023-02-17T12:06:09.014Z,101044.22
2023-02-17T12:08:42.267Z,101052.56
2023-02-17T12:11:35.603Z,101050.50
2023-02-17T12:14:14.700Z,101036.63
2023-02-17T12:16:57.321Z,101039.94
2023-02-17T12:19:37.190Z,101046.78
2023-02-17T12:22:23.270Z,101038.59
2023-02-17T12:25:27.035Z,101043.63
2023-02-17T12:28:24.080Z,101038.72
2023-02-17T12:31:16.198Z,101040.16
2023-02-17T12:33:58.137Z,101045.44
2023-02-17T12:36:34.838Z,101043.81
2023-02-17T12:39:24.656Z,101035.34
2023-02-17T12:42:26.607Z,101045.59
2023-02-17T12:45:03.938Z,101036.22
2023-02-17T12:48:01.812Z,101036.22
2023-02-17T12:50:52.385Z,101030.53
2023-02-17T12:53:28.385Z,101036.41
2023-02-17T12:56:00.601Z,101020.78
2023-02-17T12:58:32.856Z,101021.66
2023-02-17T13:01:09.520Z,101021.09
2023-02-17T13:03:38.191Z,101019.19
2023-02-17T13:06:39.788Z,101016.50
2023-02-17T13:09:34.946Z,101022.22
2023-02-17T13:12:42.472Z,101016.13
2023-02-17T13:15:46.752Z,101015.16
2023-02-17T13:18:23.181Z,101007.34
2023-02-17T13:21:00.870Z,101011.19
2023-02-17T13:24:08.987Z,101001.47
2023-02-17T13:26:38.156Z,101013.72
2023-02-17T13:29:12.416Z,101013.56
2023-02-17T13:31:55.353Z,101005.72
2023-02-17T13:34:44.786Z,101020.72
2023-02-17T13:37:18.669Z,101020.94
2023-02-17T13:39:47.394Z,101025.47
2023-02-17T13:42:40.866Z,101024.66
2023-02-17T13:45:16.543Z,101029.09
2023-02-17T13:50:56.995Z,101031.06
2023-02-17T13:53:27.172Z,101021.50
2023-02-17T13:55:58.397Z,101032.41
2023-02-17T13:58:44.228Z,101028.13
2023-02-17T14:01:18.080Z,101020.34
2023-02-17T14:03:54.336Z,101021.97
2023-02-17T14:06:30.141Z,101023.91
2023-02-17T14:08:57.608Z,101014.53
2023-02-17T14:11:27.728Z,101015.25
2023-02-17T14:13:57.169Z,101025.69
2023-02-17T14:16:39.648Z,101029.13
2023-02-17T14:19:16.528Z,101018.25
2023-02-17T14:21:56.987Z,101023.41
2023-02-17T14:24:49.947Z,101026.88
2023-02-17T14:27:17.762Z,101013.00
2023-02-17T14:29:47.856Z,101016.56
2023-02-17T14:32:36.437Z,101029.16
2023-02-17T14:35:23.756Z,101022.31
2023-02-17T14:37:52.389Z,101020.88
2023-02-17T14:40:24.732Z,101024.63
2023-02-17T14:42:52.300Z,101030.22
2023-02-17T14:45:19.926Z,101026.97
2023-02-17T14:47:47.580Z,101037.63
2023-02-17T14:50:17.531Z,101043.13
2023-02-17T14:52:50.078Z,101033.50
2023-02-17T14:55:29.148Z,101032.84
2023-02-17T14:57:58.097Z,101031.28
2023-02-17T15:00:27.860Z,101045.41
2023-02-17T15:03:00.042Z,101042.84
2023-02-17T15:05:27.279Z,101028.97
2023-02-17T15:07:54.666Z,101026.41
2023-02-17T15:10:29.250Z,101039.66
2023-02-17T15:12:57.357Z,101036.31
2023-02-17T15:15:25.525Z,101033.78
2023-02-17T15:17:58.039Z,101031.22
2023-02-17T15:20:25.572Z,101022.63
2023-02-17T15:22:57.269Z,101028.97
2023-02-17T15:25:24.838Z,101027.41
2023-02-17T15:27:56.450Z,101030.28
2023-02-17T15:30:28.576Z,101043.69
2023-02-17T15:32:56.385Z,101057.88
2023-02-17T15:35:29.235Z,101050.97
2023-02-17T15:37:58.027Z,101059.06
2023-02-17T15:40:28.366Z,101053.00
2023-02-17T15:43:05.911Z,101055.72
2023-02-17T15:45:45.172Z,101053.16
2023-02-17T15:48:30.685Z,101059.28
2023-02-17T15:51:04.654Z,101061.19
2023-02-17T15:53:34.679Z,101065.50
2023-02-17T15:56:02.776Z,101064.63
2023-02-17T15:58:32.806Z,101076.94
2023-02-17T16:01:04.943Z,101062.16
2023-02-17T16:03:32.346Z,101067.47
2023-02-17T16:05:59.849Z,101058.75
2023-02-17T16:08:30.608Z,101061.50
2023-02-17T16:10:58.150Z,101053.84
2023-02-17T16:13:27.834Z,101062.75
2023-02-17T16:15:58.920Z,101060.34
2023-02-17T16:18:26.498Z,101057.00
2023-02-17T16:20:55.197Z,101066.88
2023-02-17T16:23:22.335Z,101074.00
2023-02-17T16:25:55.125Z,101062.75
2023-02-17T16:28:25.118Z,101072.44
2023-02-17T16:30:53.061Z,101074.22
2023-02-17T16:33:27.598Z,101072.72
2023-02-17T16:36:18.570Z,101069.25
2023-02-17T16:38:52.098Z,101077.34
2023-02-17T16:44:15.840Z,101077.75
2023-02-17T16:46:53.052Z,101073.34
2023-02-17T16:49:28.428Z,101078.72
2023-02-17T16:51:56.471Z,101082.38
2023-02-17T16:57:22.854Z,101082.50
2023-02-17T16:59:55.287Z,101071.22
2023-02-17T17:02:22.494Z,101077.41
2023-02-17T17:05:06.554Z,101067.91
2023-02-17T17:07:34.139Z,101073.31
2023-02-17T17:10:18.491Z,101066.34
2023-02-17T17:12:47.117Z,101069.13
2023-02-17T17:15:15.898Z,101066.59
2023-02-17T17:18:00.558Z,101059.28
2023-02-17T17:20:32.445Z,101080.75
2023-02-17T17:23:01.658Z,101065.19
2023-02-17T17:25:29.952Z,101077.63
2023-02-17T17:30:47.018Z,101083.16
2023-02-17T17:33:17.396Z,101070.13
2023-02-17T17:35:44.803Z,101079.00
2023-02-17T17:38:20.797Z,101070.25
2023-02-17T17:40:58.054Z,101061.50
2023-02-17T17:43:25.239Z,101069.31
2023-02-17T17:45:55.403Z,101054.41
2023-02-17T17:48:22.838Z,101064.91
2023-02-17T17:50:50.320Z,101059.78
2023-02-17T17:53:17.663Z,101059.06
2023-02-17T17:55:47.169Z,101050.38
2023-02-17T17:58:16.304Z,101067.09
2023-02-17T18:00:48.175Z,101059.34
2023-02-17T18:03:15.289Z,101062.13
2023-02-17T18:05:43.100Z,101062.19
2023-02-17T18:08:14.147Z,101047.34
2023-02-17T18:10:44.085Z,101056.09
2023-02-17T18:13:15.282Z,101039.47
2023-02-17T18:21:20.789Z,101030.66
2023-02-17T18:23:50.084Z,101023.69
2023-02-17T18:26:18.705Z,101026.34
2023-02-17T18:28:46.337Z,101029.88
2023-02-17T18:31:19.550Z,101019.38
2023-02-17T18:33:46.710Z,101027.25
2023-02-17T18:36:19.971Z,101031.63
2023-02-17T18:38:57.042Z,101022.00
2023-02-17T18:41:47.692Z,101008.91
2023-02-17T18:44:17.948Z,101013.25
2023-02-17T18:46:57.917Z,101015.97
2023-02-17T18:49:29.543Z,101002.06
2023-02-17T18:51:56.968Z,101003.94
2023-02-17T18:54:24.139Z,101021.47
2023-02-17T18:56:51.824Z,101010.16
2023-02-17T18:59:19.587Z,101011.94
2023-02-17T19:01:47.793Z,101012.81
2023-02-17T19:04:15.632Z,101017.22
2023-02-17T19:07:06.195Z,101010.25
2023-02-17T19:10:02.627Z,100998.00
2023-02-17T19:12:38.171Z,100995.41
2023-02-17T19:15:06.780Z,100990.16
2023-02-17T19:17:43.397Z,100998.91
2023-02-17T19:20:24.841Z,100987.53
2023-02-17T19:22:56.579Z,100999.78
2023-02-17T19:25:25.047Z,100990.16
2023-02-17T19:27:56.857Z,100984.94
2023-02-17T19:30:33.451Z,100988.41
2023-02-17T19:33:03.334Z,100985.81
2023-02-17T19:35:41.675Z,100970.94
2023-02-17T19:38:09.335Z,100981.44
2023-02-17T19:40:42.115Z,100972.69
2023-02-17T19:43:11.350Z,100967.44
2023-02-17T19:45:39.054Z,100962.22
2023-02-17T19:48:19.043Z,100966.56
2023-02-17T19:51:02.399Z,100962.22
2023-02-17T19:53:35.001Z,100961.34
2023-02-17T19:56:21.565Z,100965.69
2023-02-17T19:58:57.157Z,100956.97
2023-02-17T20:01:33.666Z,100962.22
2023-02-17T20:04:05.135Z,100956.09
2023-02-17T20:06:44.040Z,100942.13
2023-02-17T20:09:22.429Z,100941.22
2023-02-17T20:11:54.589Z,100935.13
2023-02-17T20:14:36.964Z,100931.63
2023-02-17T20:17:17.726Z,100926.38
2023-02-17T20:19:49.838Z,100927.25
2023-02-17T20:22:40.527Z,100930.75
2023-02-17T20:25:10.858Z,100919.38
2023-02-17T20:27:40.462Z,100909.78
2023-02-17T20:30:08.108Z,100902.78
2023-02-17T20:32:40.740Z,100897.53
2023-02-17T20:35:08.140Z,100915.03
2023-02-17T20:37:35.773Z,100915.00
2023-02-17T20:40:04.041Z,100911.53
2023-02-17T20:42:32.435Z,100906.28
2023-02-17T20:45:01.589Z,100916.78
2023-02-17T20:47:29.632Z,100904.53
2023-02-17T20:49:57.735Z,100894.94
2023-02-17T20:52:26.586Z,100891.44
2023-02-17T20:54:55.193Z,100894.03
2023-02-17T20:57:23.579Z,100892.31
2023-02-17T20:59:52.008Z,100885.31
2023-02-17T21:02:19.303Z,100873.09
2023-02-17T21:04:49.373Z,100885.31
2023-02-17T21:07:19.310Z,100880.94
2023-02-17T21:09:48.157Z,100885.31
2023-02-17T21:12:15.885Z,100878.34
2023-02-17T21:14:43.288Z,100862.63
2023-02-17T21:17:11.147Z,100868.72
2023-02-17T21:19:38.406Z,100866.97
2023-02-17T21:22:05.793Z,100855.63
2023-02-17T21:24:34.224Z,100852.16
2023-02-17T21:27:01.556Z,100853.00
2023-02-17T21:29:28.613Z,100848.63
2023-02-17T21:31:56.022Z,100857.31
2023-02-17T21:34:23.118Z,100843.31
2023-02-17T21:36:50.644Z,100839.84
2023-02-17T21:39:19.663Z,100844.19
2023-02-17T21:41:46.853Z,100840.69
2023-02-17T21:44:32.357Z,100839.81
2023-02-17T21:46:59.920Z,100825.88
2023-02-17T21:49:26.874Z,100825.00
2023-02-17T21:51:54.202Z,100814.53
2023-02-17T21:54:21.229Z,100826.75
2023-02-17T21:56:48.681Z,100811.91
2023-02-17T21:59:15.789Z,100807.53
2023-02-17T22:01:44.671Z,100804.91
2023-02-17T22:04:11.701Z,100797.09
2023-02-17T22:06:41.829Z,100790.16
2023-02-17T22:09:11.976Z,100791.88
2023-02-17T22:11:41.881Z,100779.69
2023-02-17T22:14:14.844Z,100780.56
2023-02-17T22:16:42.853Z,100770.94
2023-02-17T22:19:17.423Z,100768.31
2023-02-17T22:21:45.797Z,100753.47
2023-02-17T22:24:13.094Z,100750.84
2023-02-17T22:26:41.809Z,100747.38
2023-02-17T22:29:11.178Z,100740.41
2023-02-17T22:31:38.727Z,100736.03
2023-02-17T22:34:10.484Z,100730.81
2023-02-17T22:36:38.067Z,100743.91
2023-02-17T22:39:07.221Z,100733.44
2023-02-17T22:41:35.114Z,100734.34
2023-02-17T22:44:03.116Z,100726.47
2023-02-17T22:46:31.174Z,100728.22
2023-02-17T22:48:58.823Z,100714.28
2023-02-17T22:51:29.387Z,100716.00
2023-02-17T22:53:57.100Z,100723.00
2023-02-17T22:56:24.696Z,100728.25
2023-02-17T22:58:56.471Z,100724.72
2023-02-17T23:01:27.654Z,100728.19
2023-02-17T23:03:55.245Z,100721.16
2023-02-17T23:06:29.665Z,100721.19
2023-02-17T23:08:56.816Z,100721.16
2023-02-17T23:11:49.810Z,100722.00
2023-02-17T23:14:27.759Z,100708.88
2023-02-17T23:17:05.009Z,100716.69
2023-02-17T23:19:36.032Z,100714.97
2023-02-17T23:22:10.446Z,100702.72
2023-02-17T23:24:38.211Z,100701.88
2023-02-17T23:27:08.457Z,100686.16
2023-02-17T23:29:35.531Z,100696.69
2023-02-17T23:32:02.773Z,100695.81
2023-02-17T23:34:30.362Z,100693.22
2023-02-17T23:36:57.877Z,100690.59
2023-02-17T23:39:25.375Z,100700.19
2023-02-17T23:41:52.685Z,100692.31
2023-02-17T23:44:19.775Z,100685.31
2023-02-17T23:46:47.147Z,100686.16
2023-02-17T23:49:16.132Z,100680.91
2023-02-17T23:51:45.117Z,100687.84
2023-02-17T23:54:12.641Z,100679.03
2023-02-17T23:56:40.123Z,100672.00
2023-02-17T23:59:07.536Z,100671.06
